sensor_id;sensor_type;location;lat;lon;timestamp;P1;durP1;ratioP1;P2;durP2;ratioP2
17967;SDS011;9109;48.050;11.696;2022-12-18T04:48:34;59.23;;;18.57;;
17967;SDS011;9109;48.050;11.696;2022-12-18T04:51:36;63.53;;;19.80;;
17967;SDS011;9109;48.050;11.696;2022-12-18T04:54:39;62.00;;;19.70;;
17967;SDS011;9109;48.050;11.696;2022-12-18T04:57:41;69.60;;;22.10;;
17967;SDS011;9109;48.050;11.696;2022-12-18T05:00:42;65.47;;;19.97;;
17967;SDS011;9109;48.050;11.696;2022-12-18T05:03:46;58.53;;;20.43;;
17967;SDS011;9109;48.050;11.696;2022-12-18T05:06:48;66.17;;;19.43;;
17967;SDS011;9109;48.050;11.696;2022-12-18T05:09:50;68.23;;;20.57;;
17967;SDS011;9109;48.050;11.696;2022-12-18T05:12:52;71.27;;;20.67;;
17967;SDS011;9109;48.050;11.696;2022-12-18T05:15:59;64.83;;;20.70;;
17967;SDS011;9109;48.050;11.696;2022-12-18T05:19:03;65.23;;;20.17;;
17967;SDS011;9109;48.050;11.696;2022-12-18T05:22:05;63.70;;;18.67;;
17967;SDS011;9109;48.050;11.696;2022-12-18T05:25:08;63.03;;;19.03;;
17967;SDS011;9109;48.050;11.696;2022-12-18T05:28:10;58.00;;;18.97;;
17967;SDS011;9109;48.050;11.696;2022-12-18T05:31:13;65.77;;;21.27;;
17967;SDS011;9109;48.050;11.696;2022-12-18T05:34:16;66.17;;;20.77;;
17967;SDS011;9109;48.050;11.696;2022-12-18T05:37:18;65.60;;;20.77;;
17967;SDS011;9109;48.050;11.696;2022-12-18T05:40:20;66.07;;;18.83;;
17967;SDS011;9109;48.050;11.696;2022-12-18T05:43:22;59.27;;;19.27;;
17967;SDS011;9109;48.050;11.696;2022-12-18T05:46:25;47.97;;;15.90;;
17967;SDS011;9109;48.050;11.696;2022-12-18T05:49:29;61.47;;;19.73;;
17967;SDS011;9109;48.050;11.696;2022-12-18T05:52:31;59.07;;;19.97;;
17967;SDS011;9109;48.050;11.696;2022-12-18T05:55:33;53.23;;;20.07;;
17967;SDS011;9109;48.050;11.696;2022-12-18T05:58:35;62.03;;;19.40;;
17967;SDS011;9109;48.050;11.696;2022-12-18T06:01:37;55.37;;;17.60;;
17967;SDS011;9109;48.050;11.696;2022-12-18T06:04:41;66.23;;;20.60;;
17967;SDS011;9109;48.050;11.696;2022-12-18T06:07:42;53.93;;;18.17;;
17967;SDS011;9109;48.050;11.696;2022-12-18T06:10:49;63.23;;;20.60;;
17967;SDS011;9109;48.050;11.696;2022-12-18T06:13:53;60.13;;;19.07;;
17967;SDS011;9109;48.050;11.696;2022-12-18T06:16:56;53.70;;;18.77;;
17967;SDS011;9109;48.050;11.696;2022-12-18T06:19:59;60.23;;;18.80;;
17967;SDS011;9109;48.050;11.696;2022-12-18T06:23:01;62.10;;;20.50;;
17967;SDS011;9109;48.050;11.696;2022-12-18T06:26:04;59.07;;;19.73;;
17967;SDS011;9109;48.050;11.696;2022-12-18T06:29:07;70.83;;;20.73;;
17967;SDS011;9109;48.050;11.696;2022-12-18T06:32:08;67.53;;;20.83;;
17967;SDS011;9109;48.050;11.696;2022-12-18T06:35:12;67.20;;;20.50;;
17967;SDS011;9109;48.050;11.696;2022-12-18T06:38:14;62.53;;;19.47;;
17967;SDS011;9109;48.050;11.696;2022-12-18T06:41:16;56.63;;;18.73;;
17967;SDS011;9109;48.050;11.696;2022-12-18T06:44:20;56.80;;;19.97;;
17967;SDS011;9109;48.050;11.696;2022-12-18T06:47:22;59.30;;;19.47;;
17967;SDS011;9109;48.050;11.696;2022-12-18T06:50:25;66.93;;;20.80;;
17967;SDS011;9109;48.050;11.696;2022-12-18T06:53:27;61.20;;;20.23;;
17967;SDS011;9109;48.050;11.696;2022-12-18T06:56:30;67.70;;;19.20;;
17967;SDS011;9109;48.050;11.696;2022-12-18T06:59:32;55.90;;;18.83;;
17967;SDS011;9109;48.050;11.696;2022-12-18T07:02:34;57.60;;;19.27;;
17967;SDS011;9109;48.050;11.696;2022-12-18T07:09:23;59.63;;;20.17;;
17967;SDS011;9109;48.050;11.696;2022-12-18T07:12:26;65.10;;;20.70;;
17967;SDS011;9109;48.050;11.696;2022-12-18T07:15:28;64.00;;;18.63;;
17967;SDS011;9109;48.050;11.696;2022-12-18T07:18:30;62.33;;;18.40;;
17967;SDS011;9109;48.050;11.696;2022-12-18T07:21:31;63.60;;;19.93;;
17967;SDS011;9109;48.050;11.696;2022-12-18T07:24:35;70.17;;;19.50;;
17967;SDS011;9109;48.050;11.696;2022-12-18T07:27:37;64.30;;;20.17;;
17967;SDS011;9109;48.050;11.696;2022-12-18T07:30:39;67.10;;;20.20;;
17967;SDS011;9109;48.050;11.696;2022-12-18T07:33:40;68.53;;;20.07;;
17967;SDS011;9109;48.050;11.696;2022-12-18T07:36:43;64.20;;;19.90;;
17967;SDS011;9109;48.050;11.696;2022-12-18T07:39:46;64.57;;;18.63;;
17967;SDS011;9109;48.050;11.696;2022-12-18T07:42:48;66.77;;;19.40;;
17967;SDS011;9109;48.050;11.696;2022-12-18T07:45:50;52.23;;;16.67;;
17967;SDS011;9109;48.050;11.696;2022-12-18T07:48:52;61.63;;;20.40;;
17967;SDS011;9109;48.050;11.696;2022-12-18T07:52:07;67.40;;;20.37;;
17967;SDS011;9109;48.050;11.696;2022-12-18T07:55:11;80.97;;;23.40;;
17967;SDS011;9109;48.050;11.696;2022-12-18T07:58:13;67.50;;;20.53;;
17967;SDS011;9109;48.050;11.696;2022-12-18T08:01:15;57.43;;;19.80;;
17967;SDS011;9109;48.050;11.696;2022-12-18T08:04:17;66.47;;;19.53;;
17967;SDS011;9109;48.050;11.696;2022-12-18T08:07:19;64.47;;;18.47;;
17967;SDS011;9109;48.050;11.696;2022-12-18T08:10:22;68.53;;;20.00;;
17967;SDS011;9109;48.050;11.696;2022-12-18T08:13:39;59.97;;;19.80;;
17967;SDS011;9109;48.050;11.696;2022-12-18T08:16:43;58.37;;;18.63;;
17967;SDS011;9109;48.050;11.696;2022-12-18T08:20:21;56.10;;;18.60;;
17967;SDS011;9109;48.050;11.696;2022-12-18T08:23:23;60.67;;;18.00;;
17967;SDS011;9109;48.050;11.696;2022-12-18T08:26:27;60.93;;;18.27;;
17967;SDS011;9109;48.050;11.696;2022-12-18T08:29:30;60.27;;;18.13;;
17967;SDS011;9109;48.050;11.696;2022-12-18T08:32:33;52.27;;;17.47;;
17967;SDS011;9109;48.050;11.696;2022-12-18T08:35:36;50.73;;;17.23;;
17967;SDS011;9109;48.050;11.696;2022-12-18T08:38:47;56.87;;;17.30;;
17967;SDS011;9109;48.050;11.696;2022-12-18T08:41:54;55.13;;;19.40;;
17967;SDS011;9109;48.050;11.696;2022-12-18T08:45:13;60.83;;;18.00;;
17967;SDS011;9109;48.050;11.696;2022-12-18T08:48:25;60.03;;;16.67;;
17967;SDS011;9109;48.050;11.696;2022-12-18T08:51:27;56.37;;;16.43;;
17967;SDS011;9109;48.050;11.696;2022-12-18T08:54:32;62.37;;;17.80;;
17967;SDS011;9109;48.050;11.696;2022-12-18T08:57:35;53.77;;;17.60;;
17967;SDS011;9109;48.050;11.696;2022-12-18T09:00:37;49.53;;;16.00;;
17967;SDS011;9109;48.050;11.696;2022-12-18T09:03:39;68.80;;;20.13;;
17967;SDS011;9109;48.050;11.696;2022-12-18T09:06:41;48.80;;;16.80;;
17967;SDS011;9109;48.050;11.696;2022-12-18T09:09:43;62.23;;;20.30;;
17967;SDS011;9109;48.050;11.696;2022-12-18T09:12:47;48.43;;;17.30;;
17967;SDS011;9109;48.050;11.696;2022-12-18T09:15:49;56.47;;;18.97;;
17967;SDS011;9109;48.050;11.696;2022-12-18T09:18:52;66.20;;;23.00;;
17967;SDS011;9109;48.050;11.696;2022-12-18T09:21:59;103.03;;;33.33;;
17967;SDS011;9109;48.050;11.696;2022-12-18T09:25:01;50.67;;;17.73;;
17967;SDS011;9109;48.050;11.696;2022-12-18T09:28:13;49.90;;;17.63;;
17967;SDS011;9109;48.050;11.696;2022-12-18T09:31:17;53.97;;;19.03;;
17967;SDS011;9109;48.050;11.696;2022-12-18T09:34:23;54.10;;;17.60;;
17967;SDS011;9109;48.050;11.696;2022-12-18T09:37:25;63.37;;;20.80;;
17967;SDS011;9109;48.050;11.696;2022-12-18T09:40:32;54.90;;;18.53;;
17967;SDS011;9109;48.050;11.696;2022-12-18T09:43:40;60.67;;;20.80;;
17967;SDS011;9109;48.050;11.696;2022-12-18T09:46:48;50.93;;;17.47;;
17967;SDS011;9109;48.050;11.696;2022-12-18T09:49:58;50.43;;;18.43;;
17967;SDS011;9109;48.050;11.696;2022-12-18T09:53:10;51.13;;;17.20;;
17967;SDS011;9109;48.050;11.696;2022-12-18T09:56:29;53.00;;;16.87;;
17967;SDS011;9109;48.050;11.696;2022-12-18T09:59:41;52.73;;;19.10;;
17967;SDS011;9109;48.050;11.696;2022-12-18T10:02:47;66.83;;;22.87;;
17967;SDS011;9109;48.050;11.696;2022-12-18T10:05:58;56.23;;;17.70;;
17967;SDS011;9109;48.050;11.696;2022-12-18T10:09:28;53.17;;;19.10;;
17967;SDS011;9109;48.050;11.696;2022-12-18T10:12:36;74.97;;;24.90;;
17967;SDS011;9109;48.050;11.696;2022-12-18T10:15:51;66.07;;;21.70;;
17967;SDS011;9109;48.050;11.696;2022-12-18T10:19:16;53.33;;;16.87;;
17967;SDS011;9109;48.050;11.696;2022-12-18T10:22:53;52.00;;;17.07;;
17967;SDS011;9109;48.050;11.696;2022-12-18T10:26:22;57.40;;;18.57;;
17967;SDS011;9109;48.050;11.696;2022-12-18T10:29:40;53.33;;;18.87;;
17967;SDS011;9109;48.050;11.696;2022-12-18T10:33:01;53.53;;;18.30;;
17967;SDS011;9109;48.050;11.696;2022-12-18T10:36:09;48.33;;;15.50;;
17967;SDS011;9109;48.050;11.696;2022-12-18T10:39:43;51.90;;;16.80;;
17967;SDS011;9109;48.050;11.696;2022-12-18T10:43:23;50.17;;;16.53;;
17967;SDS011;9109;48.050;11.696;2022-12-18T10:46:45;63.63;;;19.63;;
17967;SDS011;9109;48.050;11.696;2022-12-18T10:49:53;102.00;;;24.63;;
17967;SDS011;9109;48.050;11.696;2022-12-18T10:53:03;53.60;;;17.50;;
17967;SDS011;9109;48.050;11.696;2022-12-18T10:56:08;43.60;;;14.20;;
17967;SDS011;9109;48.050;11.696;2022-12-18T10:59:15;48.73;;;16.07;;
17967;SDS011;9109;48.050;11.696;2022-12-18T11:02:25;51.30;;;17.33;;
17967;SDS011;9109;48.050;11.696;2022-12-18T11:05:39;67.00;;;18.47;;
17967;SDS011;9109;48.050;11.696;2022-12-18T11:08:43;68.70;;;20.90;;
17967;SDS011;9109;48.050;11.696;2022-12-18T11:12:02;47.40;;;16.60;;
17967;SDS011;9109;48.050;11.696;2022-12-18T11:15:23;47.93;;;17.03;;
17967;SDS011;9109;48.050;11.696;2022-12-18T11:18:44;42.30;;;14.70;;
17967;SDS011;9109;48.050;11.696;2022-12-18T11:21:48;45.97;;;16.20;;
17967;SDS011;9109;48.050;11.696;2022-12-18T11:24:52;51.43;;;15.70;;
17967;SDS011;9109;48.050;11.696;2022-12-18T11:27:58;40.30;;;14.97;;
17967;SDS011;9109;48.050;11.696;2022-12-18T11:31:09;41.83;;;13.67;;
17967;SDS011;9109;48.050;11.696;2022-12-18T11:34:25;90.20;;;25.60;;
17967;SDS011;9109;48.050;11.696;2022-12-18T11:37:30;57.13;;;18.70;;
17967;SDS011;9109;48.050;11.696;2022-12-18T11:40:35;44.57;;;15.57;;
17967;SDS011;9109;48.050;11.696;2022-12-18T11:43:38;50.57;;;16.43;;
17967;SDS011;9109;48.050;11.696;2022-12-18T11:46:47;50.00;;;16.30;;
17967;SDS011;9109;48.050;11.696;2022-12-18T11:49:54;47.80;;;15.30;;
17967;SDS011;9109;48.050;11.696;2022-12-18T11:53:01;43.23;;;15.33;;
17967;SDS011;9109;48.050;11.696;2022-12-18T11:56:06;45.60;;;14.50;;
17967;SDS011;9109;48.050;11.696;2022-12-18T11:59:24;52.97;;;17.13;;
17967;SDS011;9109;48.050;11.696;2022-12-18T12:02:47;53.53;;;17.73;;
17967;SDS011;9109;48.050;11.696;2022-12-18T12:06:10;49.87;;;16.43;;
17967;SDS011;9109;48.050;11.696;2022-12-18T12:09:23;44.73;;;15.87;;
17967;SDS011;9109;48.050;11.696;2022-12-18T12:12:34;46.37;;;16.60;;
17967;SDS011;9109;48.050;11.696;2022-12-18T12:15:49;54.20;;;17.30;;
17967;SDS011;9109;48.050;11.696;2022-12-18T12:19:02;41.10;;;14.60;;
17967;SDS011;9109;48.050;11.696;2022-12-18T12:22:18;41.07;;;15.07;;
17967;SDS011;9109;48.050;11.696;2022-12-18T12:25:31;45.03;;;15.20;;
17967;SDS011;9109;48.050;11.696;2022-12-18T12:28:52;47.27;;;15.43;;
17967;SDS011;9109;48.050;11.696;2022-12-18T12:32:06;43.33;;;15.03;;
17967;SDS011;9109;48.050;11.696;2022-12-18T12:35:22;42.00;;;14.30;;
17967;SDS011;9109;48.050;11.696;2022-12-18T12:38:32;47.77;;;16.03;;
17967;SDS011;9109;48.050;11.696;2022-12-18T12:41:39;47.93;;;17.00;;
17967;SDS011;9109;48.050;11.696;2022-12-18T12:45:01;43.23;;;16.43;;
17967;SDS011;9109;48.050;11.696;2022-12-18T12:48:06;46.20;;;16.03;;
17967;SDS011;9109;48.050;11.696;2022-12-18T12:51:17;46.27;;;17.00;;
17967;SDS011;9109;48.050;11.696;2022-12-18T12:54:23;48.67;;;16.40;;
17967;SDS011;9109;48.050;11.696;2022-12-18T12:57:31;39.90;;;16.07;;
17967;SDS011;9109;48.050;11.696;2022-12-18T13:00:41;45.23;;;15.33;;
17967;SDS011;9109;48.050;11.696;2022-12-18T13:03:53;44.90;;;15.43;;
17967;SDS011;9109;48.050;11.696;2022-12-18T13:07:06;45.17;;;15.37;;
17967;SDS011;9109;48.050;11.696;2022-12-18T13:10:32;49.20;;;16.10;;
17967;SDS011;9109;48.050;11.696;2022-12-18T13:13:49;49.13;;;16.37;;
17967;SDS011;9109;48.050;11.696;2022-12-18T13:16:51;47.67;;;15.97;;
17967;SDS011;9109;48.050;11.696;2022-12-18T13:20:13;50.67;;;15.90;;
17967;SDS011;9109;48.050;11.696;2022-12-18T13:23:25;49.77;;;16.23;;
17967;SDS011;9109;48.050;11.696;2022-12-18T13:26:37;49.10;;;16.23;;
17967;SDS011;9109;48.050;11.696;2022-12-18T13:29:44;47.87;;;16.30;;
17967;SDS011;9109;48.050;11.696;2022-12-18T13:32:46;48.87;;;15.60;;
17967;SDS011;9109;48.050;11.696;2022-12-18T13:35:51;47.97;;;15.90;;
17967;SDS011;9109;48.050;11.696;2022-12-18T13:42:36;50.47;;;15.83;;
17967;SDS011;9109;48.050;11.696;2022-12-18T13:49:28;46.13;;;15.83;;
17967;SDS011;9109;48.050;11.696;2022-12-18T13:52:38;41.87;;;15.00;;
17967;SDS011;9109;48.050;11.696;2022-12-18T13:55:42;58.07;;;15.93;;
17967;SDS011;9109;48.050;11.696;2022-12-18T13:58:46;44.70;;;15.63;;
17967;SDS011;9109;48.050;11.696;2022-12-18T14:02:11;44.97;;;16.33;;
17967;SDS011;9109;48.050;11.696;2022-12-18T14:05:21;41.00;;;15.40;;
17967;SDS011;9109;48.050;11.696;2022-12-18T14:08:23;41.73;;;14.67;;
17967;SDS011;9109;48.050;11.696;2022-12-18T14:11:28;41.03;;;14.90;;
17967;SDS011;9109;48.050;11.696;2022-12-18T14:14:31;47.20;;;17.37;;
17967;SDS011;9109;48.050;11.696;2022-12-18T14:17:35;53.07;;;17.03;;
17967;SDS011;9109;48.050;11.696;2022-12-18T14:20:39;41.00;;;14.73;;
17967;SDS011;9109;48.050;11.696;2022-12-18T14:23:47;40.20;;;15.43;;
17967;SDS011;9109;48.050;11.696;2022-12-18T14:26:50;43.07;;;15.80;;
17967;SDS011;9109;48.050;11.696;2022-12-18T14:29:52;46.07;;;14.83;;
17967;SDS011;9109;48.050;11.696;2022-12-18T14:33:02;44.57;;;15.70;;
17967;SDS011;9109;48.050;11.696;2022-12-18T14:36:05;44.17;;;14.70;;
17967;SDS011;9109;48.050;11.696;2022-12-18T14:39:11;45.17;;;16.30;;
17967;SDS011;9109;48.050;11.696;2022-12-18T14:42:18;45.13;;;15.80;;
17967;SDS011;9109;48.050;11.696;2022-12-18T14:45:33;44.40;;;15.47;;
17967;SDS011;9109;48.050;11.696;2022-12-18T14:48:38;45.60;;;15.63;;
17967;SDS011;9109;48.050;11.696;2022-12-18T14:51:42;39.97;;;14.93;;
17967;SDS011;9109;48.050;11.696;2022-12-18T14:54:49;49.93;;;16.73;;
17967;SDS011;9109;48.050;11.696;2022-12-18T14:57:52;41.63;;;15.20;;
17967;SDS011;9109;48.050;11.696;2022-12-18T15:00:55;45.07;;;15.73;;
17967;SDS011;9109;48.050;11.696;2022-12-18T15:03:59;46.30;;;14.63;;
17967;SDS011;9109;48.050;11.696;2022-12-18T15:07:04;44.90;;;16.20;;
17967;SDS011;9109;48.050;11.696;2022-12-18T15:10:15;44.47;;;15.07;;
17967;SDS011;9109;48.050;11.696;2022-12-18T15:13:20;49.87;;;15.53;;
17967;SDS011;9109;48.050;11.696;2022-12-18T15:16:24;50.23;;;16.50;;
17967;SDS011;9109;48.050;11.696;2022-12-18T15:19:32;52.70;;;16.17;;
17967;SDS011;9109;48.050;11.696;2022-12-18T15:22:38;48.87;;;16.57;;
17967;SDS011;9109;48.050;11.696;2022-12-18T15:25:40;45.53;;;16.37;;
17967;SDS011;9109;48.050;11.696;2022-12-18T15:28:43;48.97;;;17.20;;
17967;SDS011;9109;48.050;11.696;2022-12-18T15:31:58;52.23;;;18.00;;
17967;SDS011;9109;48.050;11.696;2022-12-18T15:35:09;47.63;;;16.97;;
17967;SDS011;9109;48.050;11.696;2022-12-18T15:38:15;48.07;;;17.07;;
17967;SDS011;9109;48.050;11.696;2022-12-18T15:41:17;51.07;;;16.97;;
17967;SDS011;9109;48.050;11.696;2022-12-18T15:44:21;54.10;;;18.30;;
17967;SDS011;9109;48.050;11.696;2022-12-18T15:47:25;56.60;;;19.80;;
17967;SDS011;9109;48.050;11.696;2022-12-18T15:50:29;49.87;;;15.80;;
17967;SDS011;9109;48.050;11.696;2022-12-18T15:53:32;54.73;;;17.57;;
17967;SDS011;9109;48.050;11.696;2022-12-18T15:56:37;49.70;;;17.73;;
17967;SDS011;9109;48.050;11.696;2022-12-18T15:59:56;55.30;;;18.13;;
17967;SDS011;9109;48.050;11.696;2022-12-18T16:02:58;54.77;;;18.50;;
17967;SDS011;9109;48.050;11.696;2022-12-18T16:06:02;67.10;;;20.23;;
17967;SDS011;9109;48.050;11.696;2022-12-18T16:09:04;64.00;;;19.83;;
17967;SDS011;9109;48.050;11.696;2022-12-18T16:12:06;50.50;;;17.87;;
17967;SDS011;9109;48.050;11.696;2022-12-18T16:15:19;55.10;;;17.77;;
17967;SDS011;9109;48.050;11.696;2022-12-18T16:18:21;52.90;;;18.47;;
17967;SDS011;9109;48.050;11.696;2022-12-18T16:21:24;58.90;;;19.13;;
17967;SDS011;9109;48.050;11.696;2022-12-18T16:24:26;46.83;;;16.63;;
17967;SDS011;9109;48.050;11.696;2022-12-18T16:27:29;51.70;;;16.67;;
17967;SDS011;9109;48.050;11.696;2022-12-18T16:30:31;50.03;;;17.40;;
17967;SDS011;9109;48.050;11.696;2022-12-18T16:33:33;56.50;;;17.30;;
17967;SDS011;9109;48.050;11.696;2022-12-18T16:36:37;53.17;;;17.60;;
17967;SDS011;9109;48.050;11.696;2022-12-18T16:39:39;55.57;;;18.83;;
17967;SDS011;9109;48.050;11.696;2022-12-18T16:42:42;60.87;;;20.50;;
17967;SDS011;9109;48.050;11.696;2022-12-18T16:45:45;58.03;;;20.03;;
17967;SDS011;9109;48.050;11.696;2022-12-18T16:48:47;55.60;;;18.93;;
17967;SDS011;9109;48.050;11.696;2022-12-18T16:51:50;68.63;;;19.60;;
17967;SDS011;9109;48.050;11.696;2022-12-18T16:54:52;49.27;;;16.67;;
17967;SDS011;9109;48.050;11.696;2022-12-18T16:57:54;60.60;;;17.47;;
17967;SDS011;9109;48.050;11.696;2022-12-18T17:00:56;53.30;;;17.63;;
17967;SDS011;9109;48.050;11.696;2022-12-18T17:04:02;53.33;;;17.30;;
17967;SDS011;9109;48.050;11.696;2022-12-18T17:07:07;58.73;;;19.53;;
17967;SDS011;9109;48.050;11.696;2022-12-18T17:10:09;68.07;;;21.43;;
17967;SDS011;9109;48.050;11.696;2022-12-18T17:13:11;56.53;;;19.80;;
17967;SDS011;9109;48.050;11.696;2022-12-18T17:16:13;53.77;;;19.03;;
17967;SDS011;9109;48.050;11.696;2022-12-18T17:19:16;56.47;;;19.77;;
17967;SDS011;9109;48.050;11.696;2022-12-18T17:22:19;70.70;;;21.13;;
17967;SDS011;9109;48.050;11.696;2022-12-18T17:25:22;62.10;;;22.93;;
17967;SDS011;9109;48.050;11.696;2022-12-18T17:28:24;66.43;;;20.47;;
17967;SDS011;9109;48.050;11.696;2022-12-18T17:31:27;73.50;;;23.33;;
17967;SDS011;9109;48.050;11.696;2022-12-18T17:34:30;60.40;;;21.17;;
17967;SDS011;9109;48.050;11.696;2022-12-18T17:41:13;66.20;;;19.90;;
17967;SDS011;9109;48.050;11.696;2022-12-18T17:44:15;62.40;;;19.87;;
17967;SDS011;9109;48.050;11.696;2022-12-18T17:47:17;56.30;;;18.50;;
17967;SDS011;9109;48.050;11.696;2022-12-18T17:50:21;61.97;;;20.03;;
17967;SDS011;9109;48.050;11.696;2022-12-18T17:53:23;59.47;;;18.77;;
17967;SDS011;9109;48.050;11.696;2022-12-18T17:56:26;58.40;;;18.97;;
17967;SDS011;9109;48.050;11.696;2022-12-18T17:59:28;56.33;;;19.63;;
17967;SDS011;9109;48.050;11.696;2022-12-18T18:02:30;64.33;;;19.63;;
17967;SDS011;9109;48.050;11.696;2022-12-18T18:05:33;60.67;;;18.20;;
17967;SDS011;9109;48.050;11.696;2022-12-18T18:08:42;62.90;;;19.17;;
17967;SDS011;9109;48.050;11.696;2022-12-18T18:11:46;52.83;;;18.60;;
17967;SDS011;9109;48.050;11.696;2022-12-18T18:15:07;61.63;;;19.07;;
17967;SDS011;9109;48.050;11.696;2022-12-18T18:18:18;61.20;;;18.47;;
17967;SDS011;9109;48.050;11.696;2022-12-18T18:21:20;61.97;;;19.40;;
17967;SDS011;9109;48.050;11.696;2022-12-18T18:24:22;52.07;;;17.43;;
17967;SDS011;9109;48.050;11.696;2022-12-18T18:27:28;59.23;;;18.90;;
17967;SDS011;9109;48.050;11.696;2022-12-18T18:30:31;60.90;;;18.90;;
17967;SDS011;9109;48.050;11.696;2022-12-18T18:33:33;57.87;;;19.03;;
17967;SDS011;9109;48.050;11.696;2022-12-18T18:36:35;52.23;;;18.77;;
17967;SDS011;9109;48.050;11.696;2022-12-18T18:39:37;53.77;;;18.80;;
17967;SDS011;9109;48.050;11.696;2022-12-18T18:42:41;60.80;;;18.13;;
17967;SDS011;9109;48.050;11.696;2022-12-18T18:45:45;64.80;;;18.83;;
17967;SDS011;9109;48.050;11.696;2022-12-18T18:48:47;61.40;;;18.80;;
17967;SDS011;9109;48.050;11.696;2022-12-18T18:51:49;65.90;;;19.73;;
17967;SDS011;9109;48.050;11.696;2022-12-18T18:54:51;57.50;;;17.67;;
17967;SDS011;9109;48.050;11.696;2022-12-18T18:57:55;58.40;;;19.87;;
17967;SDS011;9109;48.050;11.696;2022-12-18T19:00:57;61.57;;;20.30;;
17967;SDS011;9109;48.050;11.696;2022-12-18T19:04:00;51.77;;;17.70;;
17967;SDS011;9109;48.050;11.696;2022-12-18T19:07:02;81.60;;;21.60;;
17967;SDS011;9109;48.050;11.696;2022-12-18T19:10:04;60.77;;;20.53;;
17967;SDS011;9109;48.050;11.696;2022-12-18T19:13:10;70.13;;;19.10;;
17967;SDS011;9109;48.050;11.696;2022-12-18T19:16:21;68.10;;;20.40;;
17967;SDS011;9109;48.050;11.696;2022-12-18T19:19:23;61.20;;;20.93;;
17967;SDS011;9109;48.050;11.696;2022-12-18T19:22:26;69.80;;;19.37;;
17967;SDS011;9109;48.050;11.696;2022-12-18T19:25:28;62.93;;;18.93;;
17967;SDS011;9109;48.050;11.696;2022-12-18T19:28:33;59.63;;;18.73;;
17967;SDS011;9109;48.050;11.696;2022-12-18T19:31:36;59.63;;;19.93;;
17967;SDS011;9109;48.050;11.696;2022-12-18T19:34:41;67.27;;;19.90;;
17967;SDS011;9109;48.050;11.696;2022-12-18T19:37:43;63.10;;;19.03;;
17967;SDS011;9109;48.050;11.696;2022-12-18T19:40:45;66.20;;;20.33;;
17967;SDS011;9109;48.050;11.696;2022-12-18T19:43:49;66.70;;;21.40;;
17967;SDS011;9109;48.050;11.696;2022-12-18T19:46:52;68.73;;;19.97;;
17967;SDS011;9109;48.050;11.696;2022-12-18T19:49:54;68.50;;;18.97;;
17967;SDS011;9109;48.050;11.696;2022-12-18T19:52:56;67.53;;;19.53;;
17967;SDS011;9109;48.050;11.696;2022-12-18T19:55:58;71.03;;;19.70;;
17967;SDS011;9109;48.050;11.696;2022-12-18T19:59:06;63.83;;;21.33;;
17967;SDS011;9109;48.050;11.696;2022-12-18T20:02:09;63.03;;;21.40;;
17967;SDS011;9109;48.050;11.696;2022-12-18T20:05:13;61.63;;;19.20;;
17967;SDS011;9109;48.050;11.696;2022-12-18T20:08:14;60.63;;;19.47;;
17967;SDS011;9109;48.050;11.696;2022-12-18T20:11:16;71.77;;;22.63;;
17967;SDS011;9109;48.050;11.696;2022-12-18T20:14:20;68.43;;;21.20;;
17967;SDS011;9109;48.050;11.696;2022-12-18T20:17:22;66.20;;;20.27;;
17967;SDS011;9109;48.050;11.696;2022-12-18T20:20:24;60.23;;;19.77;;
17967;SDS011;9109;48.050;11.696;2022-12-18T20:23:26;67.23;;;19.27;;
17967;SDS011;9109;48.050;11.696;2022-12-18T20:26:28;71.30;;;20.83;;
17967;SDS011;9109;48.050;11.696;2022-12-18T20:29:32;63.23;;;19.73;;
17967;SDS011;9109;48.050;11.696;2022-12-18T20:32:34;66.17;;;19.60;;
17967;SDS011;9109;48.050;11.696;2022-12-18T20:35:36;63.37;;;19.67;;
17967;SDS011;9109;48.050;11.696;2022-12-18T20:39:17;67.93;;;18.97;;
17967;SDS011;9109;48.050;11.696;2022-12-18T20:42:33;78.13;;;22.53;;
17967;SDS011;9109;48.050;11.696;2022-12-18T20:45:48;62.07;;;19.00;;
17967;SDS011;9109;48.050;11.696;2022-12-18T20:48:53;69.20;;;20.67;;
17967;SDS011;9109;48.050;11.696;2022-12-18T20:51:58;66.93;;;20.33;;
17967;SDS011;9109;48.050;11.696;2022-12-18T20:55:02;70.70;;;20.40;;
17967;SDS011;9109;48.050;11.696;2022-12-18T20:58:08;71.03;;;21.17;;
17967;SDS011;9109;48.050;11.696;2022-12-18T21:01:16;65.73;;;19.93;;
17967;SDS011;9109;48.050;11.696;2022-12-18T21:04:49;66.93;;;19.57;;
17967;SDS011;9109;48.050;11.696;2022-12-18T21:08:05;64.33;;;18.87;;
17967;SDS011;9109;48.050;11.696;2022-12-18T21:11:10;78.80;;;21.50;;
17967;SDS011;9109;48.050;11.696;2022-12-18T21:14:34;68.53;;;21.80;;
17967;SDS011;9109;48.050;11.696;2022-12-18T21:17:37;82.17;;;21.53;;
17967;SDS011;9109;48.050;11.696;2022-12-18T21:20:39;75.00;;;21.90;;
17967;SDS011;9109;48.050;11.696;2022-12-18T21:23:41;70.30;;;21.63;;
17967;SDS011;9109;48.050;11.696;2022-12-18T21:26:43;72.23;;;19.73;;
17967;SDS011;9109;48.050;11.696;2022-12-18T21:29:46;67.73;;;21.63;;
17967;SDS011;9109;48.050;11.696;2022-12-18T21:32:49;69.63;;;20.83;;
17967;SDS011;9109;48.050;11.696;2022-12-18T21:35:51;79.53;;;23.77;;
17967;SDS011;9109;48.050;11.696;2022-12-18T21:38:54;68.83;;;22.37;;
17967;SDS011;9109;48.050;11.696;2022-12-18T21:41:56;80.67;;;22.83;;
17967;SDS011;9109;48.050;11.696;2022-12-18T21:45:17;68.70;;;20.57;;
17967;SDS011;9109;48.050;11.696;2022-12-18T21:48:20;78.07;;;21.77;;
17967;SDS011;9109;48.050;11.696;2022-12-18T21:51:22;73.97;;;23.33;;
17967;SDS011;9109;48.050;11.696;2022-12-18T21:54:24;69.63;;;21.43;;
17967;SDS011;9109;48.050;11.696;2022-12-18T21:57:27;78.27;;;22.50;;
17967;SDS011;9109;48.050;11.696;2022-12-18T22:00:29;75.20;;;20.90;;
17967;SDS011;9109;48.050;11.696;2022-12-18T22:03:33;62.93;;;20.53;;
17967;SDS011;9109;48.050;11.696;2022-12-18T22:06:35;74.73;;;20.67;;
17967;SDS011;9109;48.050;11.696;2022-12-18T22:09:37;66.53;;;20.37;;
17967;SDS011;9109;48.050;11.696;2022-12-18T22:12:39;72.20;;;21.77;;
17967;SDS011;9109;48.050;11.696;2022-12-18T22:15:41;71.47;;;21.00;;
17967;SDS011;9109;48.050;11.696;2022-12-18T22:18:44;77.27;;;20.53;;
17967;SDS011;9109;48.050;11.696;2022-12-18T22:21:47;65.57;;;20.43;;
17967;SDS011;9109;48.050;11.696;2022-12-18T22:24:49;68.60;;;21.17;;
17967;SDS011;9109;48.050;11.696;2022-12-18T22:27:51;68.83;;;21.83;;
17967;SDS011;9109;48.050;11.696;2022-12-18T22:31:07;63.23;;;20.03;;
17967;SDS011;9109;48.050;11.696;2022-12-18T22:34:10;53.30;;;18.00;;
17967;SDS011;9109;48.050;11.696;2022-12-18T22:37:12;60.07;;;19.30;;
17967;SDS011;9109;48.050;11.696;2022-12-18T22:40:16;62.00;;;18.77;;
17967;SDS011;9109;48.050;11.696;2022-12-18T22:43:21;67.73;;;20.60;;
17967;SDS011;9109;48.050;11.696;2022-12-18T22:46:26;64.80;;;19.37;;
17967;SDS011;9109;48.050;11.696;2022-12-18T22:49:33;65.10;;;20.33;;
17967;SDS011;9109;48.050;11.696;2022-12-18T22:52:40;71.60;;;22.37;;
17967;SDS011;9109;48.050;11.696;2022-12-18T22:55:42;60.07;;;19.60;;
17967;SDS011;9109;48.050;11.696;2022-12-18T22:58:46;68.03;;;21.40;;
17967;SDS011;9109;48.050;11.696;2022-12-18T23:01:50;69.00;;;20.77;;
17967;SDS011;9109;48.050;11.696;2022-12-18T23:04:54;65.70;;;20.30;;
17967;SDS011;9109;48.050;11.696;2022-12-18T23:07:56;62.90;;;20.57;;
17967;SDS011;9109;48.050;11.696;2022-12-18T23:10:58;64.27;;;20.20;;